CW1795 Weather Reports


Display with metric or nautical units.
time (UTC)temp
F
wind
direction
speed
MPH
gust
MPH
rain 1hr
in
rain 24hr
in
rain mn
in
humidity
%
barometer
mb
20171023074505 47 300 10.0 15.0 0.00 0.02 0.00 42 1023.1
20171023074006 47 286 8.0 14.0 0.00 0.02 0.00 42 1023.1
20171023073505 47 288 7.0 13.0 0.00 0.02 0.00 42 1023.0
20171023073006 47 293 8.0 18.0 0.00 0.02 0.00 42 1023.1
20171023071506 47 299 9.0 14.0 0.00 0.02 0.00 43 1022.8
20171023071005 47 304 11.0 18.0 0.00 0.02 0.00 42 1022.5
20171023070505 47 313 9.0 15.0 0.00 0.02 0.00 44 1022.5
20171023070005 47 309 10.0 17.0 0.00 0.02 0.00 43 1022.5
20171023064504 47 307 11.0 20.0 0.00 0.02 0.00 44 1022.5
20171023064005 46 317 15.0 23.0 0.01 0.02 0.00 46 1022.2
20171023063504 46 329 11.0 20.0 0.01 0.02 0.00 48 1022.2
20171023063006 46 324 14.0 23.0 0.01 0.02 0.00 48 1022.3
20171023061505 46 326 13.0 22.0 0.01 0.02 0.00 48 1021.8
20171023061005 47 328 13.0 22.0 0.01 0.02 0.00 46 1022.2
20171023060504 47 332 14.0 21.0 0.01 0.02 0.00 47 1022.0
20171023060005 47 330 14.0 31.0 0.01 0.02 0.00 47 1021.9
20171023054504 47 346 17.0 31.0 0.01 0.02 0.02 47 1021.8
20171023054006 47 352 21.0 35.0 0.00 0.01 0.01 48 1021.6
20171023053504 47 347 18.0 29.0 0.00 0.01 0.01 48 1021.6
20171023053005 47 347 21.0 35.0 0.00 0.01 0.01 48 1021.4
20171023051504 47 355 18.0 33.0 0.00 0.01 0.01 51 1021.0
20171023051006 47 354 15.0 24.0 0.00 0.01 0.01 50 1021.0
20171023050505 47 336 13.0 20.0 0.00 0.01 0.01 49 1020.6
20171023050005 47 338 11.0 20.0 0.00 0.01 0.01 50 1020.8
20171023044504 48 318 5.0 8.0 0.00 0.01 0.01 54 1020.3
20171023044005 49 285 2.0 3.0 0.00 0.01 0.01 56 1020.6
20171023043504 49 349 2.0 3.0 0.00 0.01 0.01 57 1020.5
20171023043005 48 332 3.0 7.0 0.00 0.01 0.01 54 1020.1
20171023041504 48 162 1.0 3.0 0.01 0.01 0.01 66 1020.1
20171023041005 48 180 2.0 6.0 0.01 0.01 0.01 65 1020.3
20171023040505 48 189 2.0 3.0 0.01 0.01 0.01 65 1020.3
20171023040005 49 77 2.0 14.0 0.01 0.01 0.01 65 1019.6
20171023034505 49 356 9.0 12.0 0.01 0.01 0.01 66 1019.8
20171023034006 49 3 12.0 15.0 0.01 0.01 0.01 66 1019.2
20171023033505 49 26 10.0 13.0 0.01 0.01 0.01 67 1018.8
20171023033005 49 18 7.0 14.0 0.01 0.01 0.01 67 1018.6
20171023031505 49 25 7.0 12.0 0.00 0.00 0.00 68 1018.5
20171023031006 49 15 7.0 12.0 0.00 0.00 0.00 68 1018.8
20171023030504 49 21 9.0 12.0 0.00 0.00 0.00 68 1018.3
20171023030005 49 359 6.0 12.0 0.00 0.00 0.00 67 1018.6
20171023024504 50 14 6.0 10.0 0.00 0.00 0.00 67 1018.1
20171023024006 50 329 3.0 9.0 0.00 0.00 0.00 67 1018.2
20171023023505 50 11 10.0 15.0 0.00 0.00 0.00 67 1018.2
20171023023016 50 356 9.0 13.0 0.00 0.00 0.00 67 1018.3
20171023021504 51 17 7.0 13.0 0.00 0.00 0.00 66 1017.5
20171023021006 51 7 9.0 14.0 0.00 0.00 0.00 66 1017.4
20171023020504 51 306 6.0 9.0 0.00 0.00 0.00 65 1017.7
20171023020005 52 321 10.0 18.0 0.00 0.00 0.00 64 1017.7
20171023014505 53 9 11.0 16.0 0.00 0.00 0.00 59 1016.8
20171023014005 54 357 11.0 18.0 0.00 0.00 0.00 55 1016.6
20171023013504 55 5 11.0 18.0 0.00 0.00 0.00 53 1016.3
20171023013006 55 315 12.0 22.0 0.00 0.00 0.00 51 1016.1
20171023011504 56 310 10.0 20.0 0.00 0.00 0.00 48 1015.5
20171023011009 56 312 6.0 13.0 0.00 0.00 0.00 48 1015.4
20171023010504 57 288 6.0 10.0 0.00 0.00 0.00 46 1015.3
20171023010007 57 294 2.0 12.0 0.00 0.00 0.00 46 1015.1
20171023004504 57 271 7.0 12.0 0.00 0.00 0.00 44 1014.6
20171023004005 57 291 7.0 12.0 0.00 0.00 0.00 44 1014.5
20171023003505 58 279 9.0 13.0 0.00 0.00 0.00 44 1014.7
20171023003005 58 295 8.0 14.0 0.00 0.00 0.00 43 1014.6
20171023001504 58 253 8.0 14.0 0.00 0.00 0.00 42 1014.5
20171023001006 58 263 9.0 15.0 0.00 0.00 0.00 42 1014.2
20171023000505 58 263 6.0 14.0 0.00 0.00 0.00 42 1014.3
20171023000005 58 278 7.0 13.0 0.00 0.00 0.00 42 1014.2
20171022234505 59 267 9.0 13.0 0.00 0.00 0.00 41 1014.2
20171022234005 59 313 3.0 9.0 0.00 0.00 0.00 42 1014.3
20171022233504 59 304 4.0 9.0 0.00 0.00 0.00 42 1014.3
20171022233006 59 301 6.0 15.0 0.00 0.00 0.00 41 1014.0
20171022231504 61 319 8.0 14.0 0.00 0.00 0.00 40 1014.0
20171022231005 61 332 3.0 8.0 0.00 0.00 0.00 40 1013.5
20171022230504 61 341 7.0 12.0 0.00 0.00 0.00 40 1013.7
20171022230005 61 307 8.0 16.0 0.00 0.00 0.00 39 1014.0
20171022224504 62 313 10.0 15.0 0.00 0.00 0.00 40 1014.0
20171022224005 62 285 6.0 12.0 0.00 0.00 0.00 40 1013.8
20171022223513 62 298 9.0 18.0 0.00 0.00 0.00 39 1013.8
20171022223006 62 309 10.0 21.0 0.00 0.00 0.00 40 1013.8
20171022221006 63 319 11.0 20.0 0.00 0.00 0.00 39 1013.6
20171022220505 62 295 9.0 18.0 0.00 0.00 0.00 38 1013.4
20171022220006 62 293 13.0 21.0 0.00 0.00 0.00 38 1012.9
20171022214505 62 283 10.0 16.0 0.00 0.00 0.00 39 1013.4
20171022214005 61 298 14.0 20.0 0.00 0.00 0.00 40 1013.5
20171022213504 61 299 11.0 15.0 0.00 0.00 0.00 41 1013.3
20171022213006 60 297 10.0 17.0 0.00 0.00 0.00 42 1013.2
20171022211504 60 272 10.0 15.0 0.00 0.00 0.00 43 1013.2
20171022211006 59 279 7.0 16.0 0.00 0.00 0.00 44 1013.2
20171022210505 59 294 12.0 18.0 0.00 0.00 0.00 43 1013.7
20171022210005 59 320 9.0 17.0 0.00 0.00 0.00 44 1013.7
20171022204505 59 306 10.0 15.0 0.00 0.00 0.00 43 1013.9
20171022204006 60 299 9.0 16.0 0.00 0.00 0.00 42 1014.0
20171022203505 60 302 10.0 15.0 0.00 0.00 0.00 42 1014.0
20171022203006 60 277 6.0 18.0 0.00 0.00 0.00 42 1013.9
20171022201505 61 283 10.0 16.0 0.00 0.00 0.00 41 1013.8
20171022201006 61 282 16.0 21.0 0.00 0.00 0.00 40 1014.0
20171022200505 61 260 10.0 20.0 0.00 0.00 0.00 40 1013.7
20171022200006 62 285 9.0 17.0 0.00 0.00 0.00 40 1013.9
20171022194505 60 299 5.0 12.0 0.00 0.00 0.00 42 1013.7
20171022194006 59 272 6.0 14.0 0.00 0.00 0.00 44 1014.3
20171022193504 58 323 7.0 17.0 0.00 0.00 0.00 45 1014.2
20171022193006 58 5 6.0 15.0 0.00 0.00 0.00 45 1014.2
20171022191505 55 55 6.0 9.0 0.00 0.00 0.00 43 1014.4
20171022191005 55 45 6.0 10.0 0.00 0.00 0.00 44 1014.5
20171022190507 54 31 5.0 9.0 0.00 0.00 0.00 44 1014.4
20171022190008 53 27 3.0 6.0 0.00 0.00 0.00 45 1014.2
20171022184504 51 310 2.0 3.0 0.00 0.00 0.00 43 1014.4
20171022184006 50 334 3.0 9.0 0.00 0.00 0.00 43 1014.3
20171022183505 50 10 7.0 12.0 0.00 0.00 0.00 43 1014.4
20171022183006 50 328 9.0 17.0 0.00 0.00 0.00 44 1014.6
20171022181505 49 315 6.0 13.0 0.00 0.00 0.00 43 1014.3
20171022181005 49 81 8.0 13.0 0.00 0.00 0.00 42 1014.3
20171022180505 49 63 5.0 9.0 0.00 0.00 0.00 41 1014.7
20171022180006 49 65 6.0 14.0 0.00 0.00 0.00 41 1014.7
20171022174505 49 32 7.0 12.0 0.00 0.00 0.00 40 1014.6
20171022174005 50 26 10.0 15.0 0.00 0.00 0.00 40 1014.5
20171022173505 50 27 9.0 16.0 0.00 0.00 0.00 41 1014.3
20171022173006 50 43 13.0 18.0 0.00 0.00 0.00 40 1014.2
20171022171504 49 21 9.0 12.0 0.00 0.00 0.00 41 1014.7
20171022171006 49 23 7.0 12.0 0.00 0.00 0.00 40 1014.9
20171022170505 49 307 4.0 13.0 0.00 0.00 0.00 40 1014.8
20171022170006 49 358 9.0 15.0 0.00 0.00 0.00 40 1015.0
20171022164505 50 0 10.0 15.0 0.00 0.00 0.00 41 1014.6
20171022164026 50 32 10.0 15.0 0.00 0.00 0.00 41 1014.2
20171022163504 49 14 8.0 15.0 0.00 0.00 0.00 43 1014.1
20171022163005 48 30 10.0 15.0 0.00 0.00 0.00 43 1014.0
20171022161505 48 51 9.0 12.0 0.00 0.00 0.00 41 1013.9
20171022161005 49 27 10.0 16.0 0.00 0.00 0.00 40 1013.8
20171022160504 50 0 9.0 12.0 0.00 0.00 0.00 42 1013.8
20171022160006 49 356 5.0 13.0 0.00 0.00 0.00 44 1013.9
20171022154505 48 358 7.0 12.0 0.00 0.00 0.00 43 1014.0
20171022154006 47 7 4.0 15.0 0.00 0.00 0.00 43 1014.0
20171022153505 48 0 14.0 18.0 0.00 0.00 0.00 42 1013.9
20171022153006 49 358 10.0 16.0 0.00 0.00 0.00 43 1014.1
20171022151505 46 67 8.0 14.0 0.00 0.00 0.00 47 1013.9
20171022151006 45 77 3.0 5.0 0.00 0.00 0.00 47 1014.3
20171022150504 44 54 6.0 9.0 0.00 0.00 0.00 46 1014.6
20171022150005 44 357 3.0 12.0 0.00 0.00 0.00 48 1014.8
20171022144504 42 43 10.0 13.0 0.00 0.00 0.00 47 1014.6
20171022144005 41 2 7.0 12.0 0.00 0.00 0.00 48 1014.8
20171022143505 41 17 7.0 13.0 0.00 0.00 0.00 48 1014.2
20171022143005 41 5 10.0 16.0 0.00 0.00 0.00 48 1014.5
20171022141504 41 26 11.0 13.0 0.00 0.00 0.00 48 1014.3
20171022141005 41 48 6.0 9.0 0.00 0.00 0.00 50 1014.0
20171022140504 41 357 3.0 9.0 0.00 0.00 0.00 48 1014.2
20171022140006 41 32 10.0 15.0 0.00 0.00 0.00 46 1014.0
20171022134505 43 18 5.0 12.0 0.00 0.00 0.00 47 1014.1
20171022134005 44 3 2.0 5.0 0.00 0.00 0.00 47 1013.9
20171022133506 44 105 3.0 12.0 0.00 0.00 0.00 46 1013.7
20171022133006 45 84 5.0 9.0 0.00 0.00 0.00 45 1013.8
20171022131505 49 19 3.0 5.0 0.00 0.00 0.00 43 1013.3
20171022131005 49 292 4.0 7.0 0.00 0.00 0.00 46 1013.4
20171022130505 49 241 6.0 12.0 0.00 0.00 0.00 46 1013.3
20171022130008 49 237 7.0 12.0 0.00 0.00 0.00 46 1013.7
20171022124505 49 209 6.0 9.0 0.00 0.00 0.00 46 1013.8
20171022124006 49 201 7.0 12.0 0.00 0.00 0.00 46 1014.0
20171022123505 49 201 8.0 10.0 0.00 0.00 0.00 46 1014.0
20171022123006 49 194 7.0 14.0 0.00 0.00 0.00 47 1013.9
20171022121505 49 205 6.0 8.0 0.00 0.00 0.00 46 1013.9
20171022121006 49 225 8.0 8.0 0.00 0.00 0.00 46 1013.8
20171022120504 49 226 9.0 12.0 0.00 0.00 0.00 46 1013.8
20171022120005 49 212 7.0 13.0 0.00 0.00 0.00 46 1013.7
20171022114504 49 233 7.0 14.0 0.00 0.00 0.00 47 1014.0
20171022114005 48 249 6.0 12.0 0.00 0.00 0.00 47 1013.7
20171022113505 48 215 9.0 13.0 0.00 0.00 0.00 47 1013.7
20171022113006 48 226 8.0 13.0 0.00 0.00 0.00 48 1013.8
20171022111505 46 216 6.0 9.0 0.00 0.00 0.00 50 1014.0
20171022111005 46 219 5.0 8.0 0.00 0.00 0.00 48 1013.8
20171022110504 46 234 3.0 7.0 0.00 0.00 0.00 49 1013.7
20171022110005 46 229 8.0 12.0 0.00 0.00 0.00 49 1013.8
20171022104505 46 239 3.0 8.0 0.00 0.00 0.00 48 1013.6
20171022104005 47 354 5.0 6.0 0.00 0.00 0.00 48 1013.8
20171022103505 47 85 4.0 7.0 0.00 0.00 0.00 47 1013.7
20171022103006 48 293 3.0 12.0 0.00 0.00 0.00 46 1013.9
20171022101505 48 200 9.0 14.0 0.00 0.00 0.00 46 1014.1
20171022101005 48 245 9.0 14.0 0.00 0.00 0.00 46 1014.3
20171022100504 48 235 12.0 15.0 0.00 0.00 0.00 46 1014.3
20171022100005 48 252 9.0 22.0 0.00 0.00 0.00 44 1014.1
20171022094504 47 259 12.0 18.0 0.00 0.00 0.00 45 1014.3
20171022094005 47 246 7.0 12.0 0.00 0.00 0.00 45 1014.0
20171022093504 46 226 9.0 12.0 0.00 0.00 0.00 46 1013.9
20171022093005 46 201 7.0 12.0 0.00 0.00 0.00 46 1013.9
20171022091504 46 212 3.0 8.0 0.00 0.00 0.00 45 1014.2
20171022091006 46 263 4.0 6.0 0.00 0.00 0.00 45 1014.2
20171022090505 46 245 3.0 6.0 0.00 0.00 0.00 45 1014.3
20171022090005 46 235 5.0 8.0 0.00 0.00 0.00 44 1014.5
20171022084505 47 203 3.0 5.0 0.00 0.00 0.00 42 1014.2
20171022084005 47 190 4.0 7.0 0.00 0.00 0.00 43 1014.3
20171022083504 48 217 5.0 6.0 0.00 0.00 0.00 42 1014.3
20171022083006 48 260 5.0 12.0 0.00 0.00 0.00 42 1014.4
20171022081505 48 272 6.0 10.0 0.00 0.00 0.00 42 1014.4
20171022081005 48 249 6.0 10.0 0.00 0.00 0.00 41 1014.3
20171022080504 48 233 10.0 15.0 0.00 0.00 0.00 41 1014.4
20171022080005 48 282 9.0 17.0 0.00 0.00 0.00 42 1014.1